sensor_id;sensor_type;location;lat;lon;timestamp;P1;durP1;ratioP1;P2;durP2;ratioP2
17496;SDS011;62150;43.582;1.456;2024-01-06T04:38:48;5.67;;;2.37;;
17496;SDS011;62150;43.582;1.456;2024-01-06T04:41:15;5.40;;;2.33;;
17496;SDS011;62150;43.582;1.456;2024-01-06T04:43:43;6.33;;;2.60;;
17496;SDS011;62150;43.582;1.456;2024-01-06T04:46:10;4.60;;;2.67;;
17496;SDS011;62150;43.582;1.456;2024-01-06T04:48:40;6.20;;;2.60;;
17496;SDS011;62150;43.582;1.456;2024-01-06T04:51:08;5.87;;;2.70;;
17496;SDS011;62150;43.582;1.456;2024-01-06T04:53:36;7.50;;;2.87;;
17496;SDS011;62150;43.582;1.456;2024-01-06T04:56:05;8.57;;;2.83;;
17496;SDS011;62150;43.582;1.456;2024-01-06T04:58:33;7.90;;;2.80;;
17496;SDS011;62150;43.582;1.456;2024-01-06T05:01:01;7.10;;;2.57;;
17496;SDS011;62150;43.582;1.456;2024-01-06T05:03:29;9.20;;;2.77;;
17496;SDS011;62150;43.582;1.456;2024-01-06T05:05:56;8.73;;;2.77;;
17496;SDS011;62150;43.582;1.456;2024-01-06T05:08:24;8.67;;;3.00;;
17496;SDS011;62150;43.582;1.456;2024-01-06T05:10:52;5.70;;;2.60;;
17496;SDS011;62150;43.582;1.456;2024-01-06T05:13:22;6.40;;;2.70;;
17496;SDS011;62150;43.582;1.456;2024-01-06T05:15:49;6.93;;;2.60;;
17496;SDS011;62150;43.582;1.456;2024-01-06T05:18:16;7.13;;;2.70;;
17496;SDS011;62150;43.582;1.456;2024-01-06T05:20:44;7.50;;;2.77;;
17496;SDS011;62150;43.582;1.456;2024-01-06T05:23:14;7.30;;;2.70;;
17496;SDS011;62150;43.582;1.456;2024-01-06T05:25:42;7.97;;;3.17;;
17496;SDS011;62150;43.582;1.456;2024-01-06T05:28:09;6.37;;;2.77;;
17496;SDS011;62150;43.582;1.456;2024-01-06T05:30:38;6.87;;;2.80;;
17496;SDS011;62150;43.582;1.456;2024-01-06T05:33:08;5.57;;;2.60;;
17496;SDS011;62150;43.582;1.456;2024-01-06T05:35:37;6.00;;;2.50;;
17496;SDS011;62150;43.582;1.456;2024-01-06T05:38:05;7.07;;;2.90;;
17496;SDS011;62150;43.582;1.456;2024-01-06T05:40:33;9.40;;;2.80;;
17496;SDS011;62150;43.582;1.456;2024-01-06T05:43:00;6.13;;;2.63;;
17496;SDS011;62150;43.582;1.456;2024-01-06T05:45:28;7.67;;;2.80;;
17496;SDS011;62150;43.582;1.456;2024-01-06T05:47:57;7.03;;;2.90;;
17496;SDS011;62150;43.582;1.456;2024-01-06T05:50:25;6.77;;;2.60;;
17496;SDS011;62150;43.582;1.456;2024-01-06T05:52:52;9.50;;;3.00;;
17496;SDS011;62150;43.582;1.456;2024-01-06T05:55:20;7.47;;;2.97;;
17496;SDS011;62150;43.582;1.456;2024-01-06T05:57:49;6.53;;;2.60;;
17496;SDS011;62150;43.582;1.456;2024-01-06T06:00:17;6.33;;;2.60;;
17496;SDS011;62150;43.582;1.456;2024-01-06T06:02:44;7.40;;;2.70;;
17496;SDS011;62150;43.582;1.456;2024-01-06T06:05:13;6.97;;;2.53;;
17496;SDS011;62150;43.582;1.456;2024-01-06T06:07:42;6.07;;;2.63;;
17496;SDS011;62150;43.582;1.456;2024-01-06T06:10:10;6.23;;;2.50;;
17496;SDS011;62150;43.582;1.456;2024-01-06T06:12:38;5.60;;;2.60;;
17496;SDS011;62150;43.582;1.456;2024-01-06T06:15:06;5.73;;;2.60;;
17496;SDS011;62150;43.582;1.456;2024-01-06T06:17:34;5.97;;;2.60;;
17496;SDS011;62150;43.582;1.456;2024-01-06T06:20:02;4.47;;;2.47;;
17496;SDS011;62150;43.582;1.456;2024-01-06T06:22:33;7.40;;;2.63;;
17496;SDS011;62150;43.582;1.456;2024-01-06T06:25:00;6.60;;;2.80;;
17496;SDS011;62150;43.582;1.456;2024-01-06T06:27:28;9.23;;;2.90;;
17496;SDS011;62150;43.582;1.456;2024-01-06T06:29:56;5.97;;;2.70;;
17496;SDS011;62150;43.582;1.456;2024-01-06T06:32:23;5.27;;;2.33;;
17496;SDS011;62150;43.582;1.456;2024-01-06T06:34:51;6.77;;;2.87;;
17496;SDS011;62150;43.582;1.456;2024-01-06T06:37:19;7.00;;;2.93;;
17496;SDS011;62150;43.582;1.456;2024-01-06T06:39:47;5.53;;;2.70;;
17496;SDS011;62150;43.582;1.456;2024-01-06T06:42:15;6.77;;;2.57;;
17496;SDS011;62150;43.582;1.456;2024-01-06T06:44:42;5.33;;;2.50;;
17496;SDS011;62150;43.582;1.456;2024-01-06T06:47:10;4.63;;;2.50;;
17496;SDS011;62150;43.582;1.456;2024-01-06T06:49:38;6.20;;;2.70;;
17496;SDS011;62150;43.582;1.456;2024-01-06T06:52:05;5.57;;;2.50;;
17496;SDS011;62150;43.582;1.456;2024-01-06T06:54:33;6.03;;;2.50;;
17496;SDS011;62150;43.582;1.456;2024-01-06T06:57:02;4.67;;;2.47;;
17496;SDS011;62150;43.582;1.456;2024-01-06T06:59:30;6.03;;;2.60;;
17496;SDS011;62150;43.582;1.456;2024-01-06T07:01:57;5.17;;;2.40;;
17496;SDS011;62150;43.582;1.456;2024-01-06T07:04:25;8.37;;;2.47;;
17496;SDS011;62150;43.582;1.456;2024-01-06T07:06:53;6.37;;;2.50;;
17496;SDS011;62150;43.582;1.456;2024-01-06T07:09:20;4.47;;;2.33;;
17496;SDS011;62150;43.582;1.456;2024-01-06T07:11:49;4.70;;;2.30;;
17496;SDS011;62150;43.582;1.456;2024-01-06T07:14:18;6.80;;;2.60;;
17496;SDS011;62150;43.582;1.456;2024-01-06T07:16:46;4.67;;;2.30;;
17496;SDS011;62150;43.582;1.456;2024-01-06T07:19:14;6.10;;;2.40;;
17496;SDS011;62150;43.582;1.456;2024-01-06T07:21:41;5.93;;;2.70;;
17496;SDS011;62150;43.582;1.456;2024-01-06T07:24:09;4.17;;;2.17;;
17496;SDS011;62150;43.582;1.456;2024-01-06T07:26:36;6.10;;;2.50;;
17496;SDS011;62150;43.582;1.456;2024-01-06T07:29:04;4.90;;;2.30;;
17496;SDS011;62150;43.582;1.456;2024-01-06T07:31:34;5.33;;;2.30;;
17496;SDS011;62150;43.582;1.456;2024-01-06T07:34:02;4.43;;;2.23;;
17496;SDS011;62150;43.582;1.456;2024-01-06T07:36:29;3.87;;;2.20;;
17496;SDS011;62150;43.582;1.456;2024-01-06T07:38:57;3.10;;;1.90;;
17496;SDS011;62150;43.582;1.456;2024-01-06T07:41:24;3.70;;;2.10;;
17496;SDS011;62150;43.582;1.456;2024-01-06T07:43:52;3.27;;;1.90;;
17496;SDS011;62150;43.582;1.456;2024-01-06T07:46:19;2.87;;;1.90;;
17496;SDS011;62150;43.582;1.456;2024-01-06T07:48:48;3.53;;;1.97;;
17496;SDS011;62150;43.582;1.456;2024-01-06T07:51:16;3.97;;;1.97;;
17496;SDS011;62150;43.582;1.456;2024-01-06T07:53:43;5.60;;;2.20;;
17496;SDS011;62150;43.582;1.456;2024-01-06T07:56:11;3.57;;;1.93;;
17496;SDS011;62150;43.582;1.456;2024-01-06T07:58:38;3.57;;;2.00;;
17496;SDS011;62150;43.582;1.456;2024-01-06T08:01:06;4.73;;;2.10;;
17496;SDS011;62150;43.582;1.456;2024-01-06T08:03:33;4.70;;;2.47;;
17496;SDS011;62150;43.582;1.456;2024-01-06T08:06:03;3.10;;;1.90;;
17496;SDS011;62150;43.582;1.456;2024-01-06T08:08:31;3.40;;;1.63;;
17496;SDS011;62150;43.582;1.456;2024-01-06T08:10:59;3.50;;;1.87;;
17496;SDS011;62150;43.582;1.456;2024-01-06T08:13:26;2.77;;;1.90;;
17496;SDS011;62150;43.582;1.456;2024-01-06T08:15:54;3.03;;;1.90;;
17496;SDS011;62150;43.582;1.456;2024-01-06T08:18:22;2.83;;;1.80;;
17496;SDS011;62150;43.582;1.456;2024-01-06T08:20:49;4.47;;;2.03;;
17496;SDS011;62150;43.582;1.456;2024-01-06T08:23:18;4.00;;;1.90;;
17496;SDS011;62150;43.582;1.456;2024-01-06T08:25:46;3.23;;;1.70;;
17496;SDS011;62150;43.582;1.456;2024-01-06T08:28:13;2.73;;;1.90;;
17496;SDS011;62150;43.582;1.456;2024-01-06T08:30:41;4.67;;;1.80;;
17496;SDS011;62150;43.582;1.456;2024-01-06T08:33:08;2.93;;;1.93;;
17496;SDS011;62150;43.582;1.456;2024-01-06T08:35:36;3.30;;;1.80;;
17496;SDS011;62150;43.582;1.456;2024-01-06T08:38:05;5.17;;;2.13;;
17496;SDS011;62150;43.582;1.456;2024-01-06T08:40:34;5.07;;;1.97;;
17496;SDS011;62150;43.582;1.456;2024-01-06T08:43:02;2.80;;;1.80;;
17496;SDS011;62150;43.582;1.456;2024-01-06T08:45:30;5.20;;;1.90;;
17496;SDS011;62150;43.582;1.456;2024-01-06T08:47:57;3.87;;;2.00;;
17496;SDS011;62150;43.582;1.456;2024-01-06T08:50:25;5.63;;;1.90;;
17496;SDS011;62150;43.582;1.456;2024-01-06T08:52:52;3.17;;;1.90;;
17496;SDS011;62150;43.582;1.456;2024-01-06T08:55:20;2.90;;;1.87;;
17496;SDS011;62150;43.582;1.456;2024-01-06T08:57:49;2.97;;;1.80;;
17496;SDS011;62150;43.582;1.456;2024-01-06T09:00:17;3.87;;;2.10;;
17496;SDS011;62150;43.582;1.456;2024-01-06T09:02:44;5.17;;;1.97;;
17496;SDS011;62150;43.582;1.456;2024-01-06T09:05:12;3.43;;;1.90;;
17496;SDS011;62150;43.582;1.456;2024-01-06T09:07:40;3.60;;;2.00;;
17496;SDS011;62150;43.582;1.456;2024-01-06T09:10:08;2.47;;;1.80;;
17496;SDS011;62150;43.582;1.456;2024-01-06T09:12:35;3.70;;;2.10;;
17496;SDS011;62150;43.582;1.456;2024-01-06T09:15:05;4.30;;;2.10;;
17496;SDS011;62150;43.582;1.456;2024-01-06T09:17:33;2.83;;;1.90;;
17496;SDS011;62150;43.582;1.456;2024-01-06T09:20:01;4.27;;;2.13;;
17496;SDS011;62150;43.582;1.456;2024-01-06T09:22:29;4.57;;;1.73;;
17496;SDS011;62150;43.582;1.456;2024-01-06T09:24:57;4.57;;;1.80;;
17496;SDS011;62150;43.582;1.456;2024-01-06T09:27:25;4.53;;;2.07;;
17496;SDS011;62150;43.582;1.456;2024-01-06T09:29:53;3.80;;;2.00;;
17496;SDS011;62150;43.582;1.456;2024-01-06T09:32:22;2.20;;;1.73;;
17496;SDS011;62150;43.582;1.456;2024-01-06T09:34:49;4.70;;;2.07;;
17496;SDS011;62150;43.582;1.456;2024-01-06T09:37:17;3.20;;;1.90;;
17496;SDS011;62150;43.582;1.456;2024-01-06T09:39:44;3.77;;;2.00;;
17496;SDS011;62150;43.582;1.456;2024-01-06T09:42:12;6.90;;;2.00;;
17496;SDS011;62150;43.582;1.456;2024-01-06T09:44:39;2.67;;;1.77;;
17496;SDS011;62150;43.582;1.456;2024-01-06T09:47:07;4.27;;;1.80;;
17496;SDS011;62150;43.582;1.456;2024-01-06T09:49:39;3.80;;;1.90;;
17496;SDS011;62150;43.582;1.456;2024-01-06T09:52:14;4.13;;;1.93;;
17496;SDS011;62150;43.582;1.456;2024-01-06T09:54:46;3.67;;;2.07;;
17496;SDS011;62150;43.582;1.456;2024-01-06T09:57:18;2.60;;;1.90;;
17496;SDS011;62150;43.582;1.456;2024-01-06T09:59:46;2.93;;;1.83;;
17496;SDS011;62150;43.582;1.456;2024-01-06T10:02:14;3.90;;;1.90;;
17496;SDS011;62150;43.582;1.456;2024-01-06T10:04:44;4.23;;;1.77;;
17496;SDS011;62150;43.582;1.456;2024-01-06T10:07:11;5.53;;;2.10;;
17496;SDS011;62150;43.582;1.456;2024-01-06T10:09:40;3.70;;;1.90;;
17496;SDS011;62150;43.582;1.456;2024-01-06T10:12:08;4.27;;;2.03;;
17496;SDS011;62150;43.582;1.456;2024-01-06T10:14:35;4.37;;;2.20;;
17496;SDS011;62150;43.582;1.456;2024-01-06T10:17:05;2.97;;;1.80;;
17496;SDS011;62150;43.582;1.456;2024-01-06T10:19:34;4.97;;;1.90;;
17496;SDS011;62150;43.582;1.456;2024-01-06T10:22:04;4.23;;;1.90;;
17496;SDS011;62150;43.582;1.456;2024-01-06T10:24:32;5.67;;;2.20;;
17496;SDS011;62150;43.582;1.456;2024-01-06T10:27:03;4.23;;;2.10;;
17496;SDS011;62150;43.582;1.456;2024-01-06T10:29:31;6.07;;;2.33;;
17496;SDS011;62150;43.582;1.456;2024-01-06T10:31:58;4.33;;;1.90;;
17496;SDS011;62150;43.582;1.456;2024-01-06T10:34:26;4.57;;;2.10;;
17496;SDS011;62150;43.582;1.456;2024-01-06T10:36:54;3.97;;;2.23;;
17496;SDS011;62150;43.582;1.456;2024-01-06T10:39:24;3.57;;;2.00;;
17496;SDS011;62150;43.582;1.456;2024-01-06T10:41:53;6.57;;;2.37;;
17496;SDS011;62150;43.582;1.456;2024-01-06T10:44:23;3.60;;;2.13;;
17496;SDS011;62150;43.582;1.456;2024-01-06T10:46:52;6.30;;;2.20;;
17496;SDS011;62150;43.582;1.456;2024-01-06T10:49:20;4.67;;;2.00;;
17496;SDS011;62150;43.582;1.456;2024-01-06T10:51:50;4.67;;;2.00;;
17496;SDS011;62150;43.582;1.456;2024-01-06T10:54:23;4.93;;;1.90;;
17496;SDS011;62150;43.582;1.456;2024-01-06T10:56:53;4.07;;;2.00;;
17496;SDS011;62150;43.582;1.456;2024-01-06T10:59:23;3.27;;;1.80;;
17496;SDS011;62150;43.582;1.456;2024-01-06T11:01:52;4.83;;;1.80;;
17496;SDS011;62150;43.582;1.456;2024-01-06T11:04:21;5.60;;;2.17;;
17496;SDS011;62150;43.582;1.456;2024-01-06T11:06:49;5.10;;;1.90;;
17496;SDS011;62150;43.582;1.456;2024-01-06T11:09:19;3.90;;;2.20;;
17496;SDS011;62150;43.582;1.456;2024-01-06T11:11:53;3.40;;;2.10;;
17496;SDS011;62150;43.582;1.456;2024-01-06T11:14:23;4.90;;;2.10;;
17496;SDS011;62150;43.582;1.456;2024-01-06T11:16:53;3.90;;;2.20;;
17496;SDS011;62150;43.582;1.456;2024-01-06T11:22:18;3.93;;;2.17;;
17496;SDS011;62150;43.582;1.456;2024-01-06T11:24:47;7.33;;;2.27;;
17496;SDS011;62150;43.582;1.456;2024-01-06T11:27:19;4.60;;;2.30;;
17496;SDS011;62150;43.582;1.456;2024-01-06T11:29:48;8.47;;;2.40;;
17496;SDS011;62150;43.582;1.456;2024-01-06T11:32:19;6.33;;;2.50;;
17496;SDS011;62150;43.582;1.456;2024-01-06T11:34:52;4.63;;;2.40;;
17496;SDS011;62150;43.582;1.456;2024-01-06T11:37:24;6.70;;;2.70;;
17496;SDS011;62150;43.582;1.456;2024-01-06T11:40:07;5.13;;;2.40;;
17496;SDS011;62150;43.582;1.456;2024-01-06T11:42:40;4.27;;;2.17;;
17496;SDS011;62150;43.582;1.456;2024-01-06T11:45:08;4.83;;;2.23;;
17496;SDS011;62150;43.582;1.456;2024-01-06T11:47:36;4.57;;;1.90;;
17496;SDS011;62150;43.582;1.456;2024-01-06T11:50:06;3.47;;;1.80;;
17496;SDS011;62150;43.582;1.456;2024-01-06T11:52:34;4.77;;;2.00;;
17496;SDS011;62150;43.582;1.456;2024-01-06T11:55:01;4.07;;;2.00;;
17496;SDS011;62150;43.582;1.456;2024-01-06T11:57:32;5.53;;;2.20;;
17496;SDS011;62150;43.582;1.456;2024-01-06T12:00:00;4.20;;;1.97;;
17496;SDS011;62150;43.582;1.456;2024-01-06T12:02:29;3.33;;;1.90;;
17496;SDS011;62150;43.582;1.456;2024-01-06T12:04:57;4.67;;;2.10;;
17496;SDS011;62150;43.582;1.456;2024-01-06T12:07:24;4.37;;;2.13;;
17496;SDS011;62150;43.582;1.456;2024-01-06T12:10:00;4.13;;;2.00;;
17496;SDS011;62150;43.582;1.456;2024-01-06T12:12:30;4.80;;;1.80;;
17496;SDS011;62150;43.582;1.456;2024-01-06T12:14:58;4.70;;;2.00;;
17496;SDS011;62150;43.582;1.456;2024-01-06T12:17:27;3.47;;;1.90;;
17496;SDS011;62150;43.582;1.456;2024-01-06T12:19:56;4.80;;;2.00;;
17496;SDS011;62150;43.582;1.456;2024-01-06T12:22:25;4.13;;;2.00;;
17496;SDS011;62150;43.582;1.456;2024-01-06T12:24:53;3.90;;;2.00;;
17496;SDS011;62150;43.582;1.456;2024-01-06T12:27:21;3.97;;;1.80;;
17496;SDS011;62150;43.582;1.456;2024-01-06T12:29:52;2.67;;;1.70;;
17496;SDS011;62150;43.582;1.456;2024-01-06T12:32:20;4.20;;;2.00;;
17496;SDS011;62150;43.582;1.456;2024-01-06T12:34:47;5.70;;;2.00;;
17496;SDS011;62150;43.582;1.456;2024-01-06T12:37:15;4.40;;;2.00;;
17496;SDS011;62150;43.582;1.456;2024-01-06T12:39:43;3.30;;;2.03;;
17496;SDS011;62150;43.582;1.456;2024-01-06T12:42:14;5.53;;;1.90;;
17496;SDS011;62150;43.582;1.456;2024-01-06T12:44:42;3.43;;;1.83;;
17496;SDS011;62150;43.582;1.456;2024-01-06T12:47:11;5.23;;;2.17;;
17496;SDS011;62150;43.582;1.456;2024-01-06T12:49:39;6.57;;;2.47;;
17496;SDS011;62150;43.582;1.456;2024-01-06T12:52:06;3.23;;;1.97;;
17496;SDS011;62150;43.582;1.456;2024-01-06T12:54:34;4.07;;;2.10;;
17496;SDS011;62150;43.582;1.456;2024-01-06T12:57:01;5.43;;;2.10;;
17496;SDS011;62150;43.582;1.456;2024-01-06T12:59:29;4.57;;;2.03;;
17496;SDS011;62150;43.582;1.456;2024-01-06T13:01:57;3.83;;;2.00;;
17496;SDS011;62150;43.582;1.456;2024-01-06T13:04:26;4.90;;;2.00;;
17496;SDS011;62150;43.582;1.456;2024-01-06T13:06:53;5.37;;;2.10;;
17496;SDS011;62150;43.582;1.456;2024-01-06T13:09:21;5.00;;;2.27;;
17496;SDS011;62150;43.582;1.456;2024-01-06T13:11:49;5.60;;;2.50;;
17496;SDS011;62150;43.582;1.456;2024-01-06T13:14:16;4.30;;;1.90;;
17496;SDS011;62150;43.582;1.456;2024-01-06T13:16:44;4.73;;;2.20;;
17496;SDS011;62150;43.582;1.456;2024-01-06T13:19:11;4.73;;;2.10;;
17496;SDS011;62150;43.582;1.456;2024-01-06T13:21:40;3.30;;;1.83;;
17496;SDS011;62150;43.582;1.456;2024-01-06T13:24:08;6.07;;;2.20;;
17496;SDS011;62150;43.582;1.456;2024-01-06T13:26:37;4.90;;;2.40;;
17496;SDS011;62150;43.582;1.456;2024-01-06T13:29:04;6.43;;;2.50;;
17496;SDS011;62150;43.582;1.456;2024-01-06T13:31:32;7.80;;;3.03;;
17496;SDS011;62150;43.582;1.456;2024-01-06T13:34:00;6.00;;;2.30;;
17496;SDS011;62150;43.582;1.456;2024-01-06T13:36:27;7.37;;;2.80;;
17496;SDS011;62150;43.582;1.456;2024-01-06T13:38:56;6.20;;;2.50;;
17496;SDS011;62150;43.582;1.456;2024-01-06T13:41:26;5.97;;;2.27;;
17496;SDS011;62150;43.582;1.456;2024-01-06T13:44:01;4.00;;;2.10;;
17496;SDS011;62150;43.582;1.456;2024-01-06T13:46:28;6.33;;;2.37;;
17496;SDS011;62150;43.582;1.456;2024-01-06T13:48:56;5.77;;;2.40;;
17496;SDS011;62150;43.582;1.456;2024-01-06T13:51:24;6.27;;;2.47;;
17496;SDS011;62150;43.582;1.456;2024-01-06T13:53:52;5.33;;;2.20;;
17496;SDS011;62150;43.582;1.456;2024-01-06T13:56:21;4.60;;;1.93;;
17496;SDS011;62150;43.582;1.456;2024-01-06T13:58:49;4.00;;;2.00;;
17496;SDS011;62150;43.582;1.456;2024-01-06T14:01:17;4.97;;;2.00;;
17496;SDS011;62150;43.582;1.456;2024-01-06T14:03:44;3.10;;;1.90;;
17496;SDS011;62150;43.582;1.456;2024-01-06T14:06:12;6.73;;;2.40;;
17496;SDS011;62150;43.582;1.456;2024-01-06T14:08:39;4.20;;;2.00;;
17496;SDS011;62150;43.582;1.456;2024-01-06T14:11:07;5.23;;;2.43;;
17496;SDS011;62150;43.582;1.456;2024-01-06T14:13:36;4.83;;;2.10;;
17496;SDS011;62150;43.582;1.456;2024-01-06T14:16:03;4.07;;;2.13;;
17496;SDS011;62150;43.582;1.456;2024-01-06T14:18:33;3.80;;;1.93;;
17496;SDS011;62150;43.582;1.456;2024-01-06T14:21:00;5.27;;;2.10;;
17496;SDS011;62150;43.582;1.456;2024-01-06T14:23:28;3.53;;;2.07;;
17496;SDS011;62150;43.582;1.456;2024-01-06T14:25:57;4.87;;;2.30;;
17496;SDS011;62150;43.582;1.456;2024-01-06T14:28:25;6.27;;;2.40;;
17496;SDS011;62150;43.582;1.456;2024-01-06T14:30:54;5.37;;;2.30;;
17496;SDS011;62150;43.582;1.456;2024-01-06T14:33:21;7.10;;;2.40;;
17496;SDS011;62150;43.582;1.456;2024-01-06T14:35:49;5.17;;;2.10;;
17496;SDS011;62150;43.582;1.456;2024-01-06T14:38:17;7.57;;;2.60;;
17496;SDS011;62150;43.582;1.456;2024-01-06T14:40:45;4.73;;;2.27;;
17496;SDS011;62150;43.582;1.456;2024-01-06T14:43:12;4.37;;;2.20;;
17496;SDS011;62150;43.582;1.456;2024-01-06T14:45:40;4.93;;;2.50;;
17496;SDS011;62150;43.582;1.456;2024-01-06T14:48:09;9.97;;;3.17;;
17496;SDS011;62150;43.582;1.456;2024-01-06T14:50:36;4.63;;;2.30;;
17496;SDS011;62150;43.582;1.456;2024-01-06T14:53:04;5.57;;;2.30;;
17496;SDS011;62150;43.582;1.456;2024-01-06T14:55:32;4.63;;;2.10;;
17496;SDS011;62150;43.582;1.456;2024-01-06T14:57:59;4.83;;;2.13;;
17496;SDS011;62150;43.582;1.456;2024-01-06T15:00:27;3.57;;;2.10;;
17496;SDS011;62150;43.582;1.456;2024-01-06T15:02:55;4.70;;;2.03;;
17496;SDS011;62150;43.582;1.456;2024-01-06T15:05:24;2.97;;;2.00;;
17496;SDS011;62150;43.582;1.456;2024-01-06T15:07:54;5.50;;;2.30;;
17496;SDS011;62150;43.582;1.456;2024-01-06T15:10:22;4.47;;;2.00;;
17496;SDS011;62150;43.582;1.456;2024-01-06T15:12:49;1.87;;;1.70;;
17496;SDS011;62150;43.582;1.456;2024-01-06T15:15:17;4.20;;;2.10;;
17496;SDS011;62150;43.582;1.456;2024-01-06T15:17:45;4.00;;;1.83;;
17496;SDS011;62150;43.582;1.456;2024-01-06T15:20:13;2.97;;;1.90;;
17496;SDS011;62150;43.582;1.456;2024-01-06T15:22:42;5.43;;;2.10;;
17496;SDS011;62150;43.582;1.456;2024-01-06T15:25:09;5.30;;;2.50;;
17496;SDS011;62150;43.582;1.456;2024-01-06T15:27:37;5.30;;;2.00;;
17496;SDS011;62150;43.582;1.456;2024-01-06T15:30:05;5.53;;;2.10;;
17496;SDS011;62150;43.582;1.456;2024-01-06T15:32:34;5.63;;;2.10;;
17496;SDS011;62150;43.582;1.456;2024-01-06T15:35:02;4.93;;;2.20;;
17496;SDS011;62150;43.582;1.456;2024-01-06T15:37:30;4.00;;;2.10;;
17496;SDS011;62150;43.582;1.456;2024-01-06T15:39:59;4.47;;;2.03;;
17496;SDS011;62150;43.582;1.456;2024-01-06T15:42:27;7.70;;;2.30;;
17496;SDS011;62150;43.582;1.456;2024-01-06T15:44:54;5.67;;;2.30;;
17496;SDS011;62150;43.582;1.456;2024-01-06T15:47:22;5.57;;;2.50;;
17496;SDS011;62150;43.582;1.456;2024-01-06T15:49:49;4.33;;;2.10;;
17496;SDS011;62150;43.582;1.456;2024-01-06T15:52:17;6.10;;;2.30;;
17496;SDS011;62150;43.582;1.456;2024-01-06T15:54:46;5.80;;;2.33;;
17496;SDS011;62150;43.582;1.456;2024-01-06T15:57:15;5.30;;;2.20;;
17496;SDS011;62150;43.582;1.456;2024-01-06T15:59:43;5.43;;;2.20;;
17496;SDS011;62150;43.582;1.456;2024-01-06T16:02:11;4.97;;;2.40;;
17496;SDS011;62150;43.582;1.456;2024-01-06T16:04:38;4.43;;;2.23;;
17496;SDS011;62150;43.582;1.456;2024-01-06T16:07:06;5.30;;;2.20;;
17496;SDS011;62150;43.582;1.456;2024-01-06T16:09:34;4.20;;;2.27;;
17496;SDS011;62150;43.582;1.456;2024-01-06T16:12:02;5.40;;;2.20;;
17496;SDS011;62150;43.582;1.456;2024-01-06T16:14:32;4.13;;;2.20;;
17496;SDS011;62150;43.582;1.456;2024-01-06T16:17:01;3.83;;;2.20;;
17496;SDS011;62150;43.582;1.456;2024-01-06T16:19:29;6.83;;;2.30;;
17496;SDS011;62150;43.582;1.456;2024-01-06T16:21:57;4.70;;;2.30;;
17496;SDS011;62150;43.582;1.456;2024-01-06T16:24:25;5.30;;;2.30;;
17496;SDS011;62150;43.582;1.456;2024-01-06T16:26:55;5.13;;;2.30;;
17496;SDS011;62150;43.582;1.456;2024-01-06T16:29:22;4.30;;;2.20;;
17496;SDS011;62150;43.582;1.456;2024-01-06T16:31:51;5.97;;;2.60;;
17496;SDS011;62150;43.582;1.456;2024-01-06T16:34:19;5.10;;;2.30;;
17496;SDS011;62150;43.582;1.456;2024-01-06T16:36:46;6.37;;;2.60;;
17496;SDS011;62150;43.582;1.456;2024-01-06T16:39:14;3.93;;;2.10;;
17496;SDS011;62150;43.582;1.456;2024-01-06T16:41:41;4.63;;;2.00;;
17496;SDS011;62150;43.582;1.456;2024-01-06T16:44:09;4.77;;;2.10;;
17496;SDS011;62150;43.582;1.456;2024-01-06T16:46:36;3.53;;;2.07;;
17496;SDS011;62150;43.582;1.456;2024-01-06T16:49:05;4.37;;;2.07;;
17496;SDS011;62150;43.582;1.456;2024-01-06T16:51:32;4.13;;;2.00;;
17496;SDS011;62150;43.582;1.456;2024-01-06T16:54:00;4.57;;;2.00;;
17496;SDS011;62150;43.582;1.456;2024-01-06T16:56:27;4.73;;;1.93;;
17496;SDS011;62150;43.582;1.456;2024-01-06T16:58:55;4.53;;;2.00;;
17496;SDS011;62150;43.582;1.456;2024-01-06T17:01:23;2.63;;;1.83;;
17496;SDS011;62150;43.582;1.456;2024-01-06T17:03:51;3.63;;;1.80;;
17496;SDS011;62150;43.582;1.456;2024-01-06T17:06:19;5.73;;;2.13;;
17496;SDS011;62150;43.582;1.456;2024-01-06T17:08:47;3.77;;;2.07;;
17496;SDS011;62150;43.582;1.456;2024-01-06T17:11:14;3.57;;;2.00;;
17496;SDS011;62150;43.582;1.456;2024-01-06T17:13:42;6.17;;;2.20;;
17496;SDS011;62150;43.582;1.456;2024-01-06T17:16:10;5.13;;;2.00;;
17496;SDS011;62150;43.582;1.456;2024-01-06T17:18:37;5.93;;;2.10;;
17496;SDS011;62150;43.582;1.456;2024-01-06T17:21:04;5.20;;;2.10;;
17496;SDS011;62150;43.582;1.456;2024-01-06T17:23:33;4.10;;;2.10;;
17496;SDS011;62150;43.582;1.456;2024-01-06T17:26:01;5.43;;;2.20;;
17496;SDS011;62150;43.582;1.456;2024-01-06T17:28:29;5.40;;;2.10;;
17496;SDS011;62150;43.582;1.456;2024-01-06T17:30:56;3.37;;;2.00;;
17496;SDS011;62150;43.582;1.456;2024-01-06T17:33:25;4.47;;;2.07;;
17496;SDS011;62150;43.582;1.456;2024-01-06T17:35:52;3.27;;;1.80;;
17496;SDS011;62150;43.582;1.456;2024-01-06T17:38:20;5.97;;;2.17;;
17496;SDS011;62150;43.582;1.456;2024-01-06T17:40:49;4.50;;;2.40;;
17496;SDS011;62150;43.582;1.456;2024-01-06T17:43:17;5.27;;;2.43;;
17496;SDS011;62150;43.582;1.456;2024-01-06T17:45:44;4.70;;;2.27;;
17496;SDS011;62150;43.582;1.456;2024-01-06T17:48:12;4.63;;;2.17;;
17496;SDS011;62150;43.582;1.456;2024-01-06T17:50:39;5.63;;;2.30;;
17496;SDS011;62150;43.582;1.456;2024-01-06T17:53:07;6.23;;;2.40;;
17496;SDS011;62150;43.582;1.456;2024-01-06T17:55:34;4.60;;;2.30;;
17496;SDS011;62150;43.582;1.456;2024-01-06T17:58:03;4.97;;;2.20;;
17496;SDS011;62150;43.582;1.456;2024-01-06T18:00:31;5.47;;;2.43;;
17496;SDS011;62150;43.582;1.456;2024-01-06T18:02:59;5.63;;;2.50;;
17496;SDS011;62150;43.582;1.456;2024-01-06T18:05:28;5.73;;;2.40;;
17496;SDS011;62150;43.582;1.456;2024-01-06T18:07:55;5.73;;;2.33;;
17496;SDS011;62150;43.582;1.456;2024-01-06T18:10:23;8.77;;;3.53;;
17496;SDS011;62150;43.582;1.456;2024-01-06T18:12:50;9.97;;;4.10;;
17496;SDS011;62150;43.582;1.456;2024-01-06T18:15:19;8.30;;;3.30;;
17496;SDS011;62150;43.582;1.456;2024-01-06T18:17:47;7.43;;;3.40;;
17496;SDS011;62150;43.582;1.456;2024-01-06T18:20:14;9.37;;;3.13;;
17496;SDS011;62150;43.582;1.456;2024-01-06T18:22:46;7.53;;;3.23;;
17496;SDS011;62150;43.582;1.456;2024-01-06T18:25:14;5.83;;;3.00;;
17496;SDS011;62150;43.582;1.456;2024-01-06T18:27:42;5.53;;;2.67;;
17496;SDS011;62150;43.582;1.456;2024-01-06T18:30:10;6.67;;;2.90;;
17496;SDS011;62150;43.582;1.456;2024-01-06T18:32:40;8.00;;;3.10;;
17496;SDS011;62150;43.582;1.456;2024-01-06T18:35:07;8.03;;;2.97;;
17496;SDS011;62150;43.582;1.456;2024-01-06T18:37:35;5.57;;;2.60;;
17496;SDS011;62150;43.582;1.456;2024-01-06T18:40:02;6.33;;;2.80;;
17496;SDS011;62150;43.582;1.456;2024-01-06T18:42:31;6.53;;;2.70;;
17496;SDS011;62150;43.582;1.456;2024-01-06T18:44:58;6.57;;;2.87;;
17496;SDS011;62150;43.582;1.456;2024-01-06T18:47:26;6.90;;;2.90;;
17496;SDS011;62150;43.582;1.456;2024-01-06T18:49:55;7.30;;;3.20;;
17496;SDS011;62150;43.582;1.456;2024-01-06T18:52:23;5.93;;;2.90;;
17496;SDS011;62150;43.582;1.456;2024-01-06T18:54:51;6.73;;;2.60;;
17496;SDS011;62150;43.582;1.456;2024-01-06T18:57:18;6.80;;;3.20;;
17496;SDS011;62150;43.582;1.456;2024-01-06T18:59:46;8.20;;;3.53;;
17496;SDS011;62150;43.582;1.456;2024-01-06T19:02:14;6.80;;;2.90;;
17496;SDS011;62150;43.582;1.456;2024-01-06T19:04:41;7.07;;;2.83;;
17496;SDS011;62150;43.582;1.456;2024-01-06T19:07:12;6.80;;;2.70;;
17496;SDS011;62150;43.582;1.456;2024-01-06T19:09:41;5.87;;;2.77;;
17496;SDS011;62150;43.582;1.456;2024-01-06T19:12:08;5.07;;;2.40;;
17496;SDS011;62150;43.582;1.456;2024-01-06T19:14:39;7.57;;;2.80;;
17496;SDS011;62150;43.582;1.456;2024-01-06T19:17:07;5.47;;;2.70;;
17496;SDS011;62150;43.582;1.456;2024-01-06T19:19:35;7.10;;;2.90;;
17496;SDS011;62150;43.582;1.456;2024-01-06T19:22:04;4.67;;;2.60;;
17496;SDS011;62150;43.582;1.456;2024-01-06T19:24:33;6.30;;;2.73;;
17496;SDS011;62150;43.582;1.456;2024-01-06T19:27:01;5.63;;;2.50;;
17496;SDS011;62150;43.582;1.456;2024-01-06T19:29:29;7.10;;;2.60;;
17496;SDS011;62150;43.582;1.456;2024-01-06T19:31:56;6.13;;;2.13;;
17496;SDS011;62150;43.582;1.456;2024-01-06T19:34:24;6.97;;;2.70;;